NCAR-RAP Real-Time Weather Data

Output produced by METARs form (14 August 2018  19:34 UTC)
found at http://weather.rap.ucar.edu/surface/
 
RJTT 141900Z 20014KT 9999 FEW030 BKN/// 28/25 Q1013 NOSIG RMK 1CU030 A2993
 
RJAA 141900Z 20006KT 170V240 9999 FEW030 SCT/// 26/24 Q1014 NOSIG RMK 1CU030 A2994
 
 
RJAH 141900Z 21007KT 9999 FEW015 BKN/// 26/25 Q1013
 
RJGG 141900Z 11012KT 9999 -SHRA FEW010 SCT015 FEW020CB BKN050 28/25 Q1013 TEMPO SHRA
 
RJNK 141900Z 06003KT 9999 FEW030 26/19 Q1012
 
 
 
 
 
 
 
 
 
 
 
 
 
RJTT 141900Z 20014KT 9999 FEW030 BKN/// 28/25 Q1013 NOSIG RMK 1CU030 A2993
 
 
RJTY 141856Z AUTO 21004KT 10SM CLR 25/21 A2998 RMK AO2 SLP147 T02500213 FZRANO $